sensor_id;sensor_type;location;lat;lon;timestamp;temperature;humidity
37456;DHT22;23316;50.718;7.328;2023-04-24T00:02:01;15.20;51.70
37456;DHT22;23316;50.718;7.328;2023-04-24T00:04:29;15.20;51.80
37456;DHT22;23316;50.718;7.328;2023-04-24T00:06:57;15.20;51.90
37456;DHT22;23316;50.718;7.328;2023-04-24T00:09:25;15.20;51.90
37456;DHT22;23316;50.718;7.328;2023-04-24T00:11:54;15.20;51.90
37456;DHT22;23316;50.718;7.328;2023-04-24T00:14:22;15.20;52.00
37456;DHT22;23316;50.718;7.328;2023-04-24T00:16:49;15.20;52.00
37456;DHT22;23316;50.718;7.328;2023-04-24T00:19:16;15.20;52.10
37456;DHT22;23316;50.718;7.328;2023-04-24T00:21:47;15.20;52.10
37456;DHT22;23316;50.718;7.328;2023-04-24T00:24:15;15.20;52.00
37456;DHT22;23316;50.718;7.328;2023-04-24T00:26:43;15.20;52.00
37456;DHT22;23316;50.718;7.328;2023-04-24T00:29:11;15.10;51.90
37456;DHT22;23316;50.718;7.328;2023-04-24T00:31:39;15.20;52.00
37456;DHT22;23316;50.718;7.328;2023-04-24T00:34:07;15.10;52.00
37456;DHT22;23316;50.718;7.328;2023-04-24T00:36:34;15.20;52.10
37456;DHT22;23316;50.718;7.328;2023-04-24T00:39:01;15.10;52.10
37456;DHT22;23316;50.718;7.328;2023-04-24T00:41:29;15.20;52.20
37456;DHT22;23316;50.718;7.328;2023-04-24T00:43:57;15.20;52.30
37456;DHT22;23316;50.718;7.328;2023-04-24T00:46:25;15.20;52.30
37456;DHT22;23316;50.718;7.328;2023-04-24T00:48:53;15.20;52.30
37456;DHT22;23316;50.718;7.328;2023-04-24T00:51:20;15.20;52.40
37456;DHT22;23316;50.718;7.328;2023-04-24T00:53:47;15.20;52.40
37456;DHT22;23316;50.718;7.328;2023-04-24T00:56:15;15.20;52.40
37456;DHT22;23316;50.718;7.328;2023-04-24T00:58:42;15.20;52.40
37456;DHT22;23316;50.718;7.328;2023-04-24T01:01:10;15.20;52.40
37456;DHT22;23316;50.718;7.328;2023-04-24T01:03:39;15.20;52.50
37456;DHT22;23316;50.718;7.328;2023-04-24T01:06:07;15.20;52.50
37456;DHT22;23316;50.718;7.328;2023-04-24T01:08:36;15.20;52.60
37456;DHT22;23316;50.718;7.328;2023-04-24T01:11:04;15.20;52.60
37456;DHT22;23316;50.718;7.328;2023-04-24T01:13:32;15.20;52.60
37456;DHT22;23316;50.718;7.328;2023-04-24T01:16:00;15.20;52.60
37456;DHT22;23316;50.718;7.328;2023-04-24T01:18:27;15.20;52.60
37456;DHT22;23316;50.718;7.328;2023-04-24T01:20:58;15.20;52.60
37456;DHT22;23316;50.718;7.328;2023-04-24T01:23:28;15.20;52.70
37456;DHT22;23316;50.718;7.328;2023-04-24T01:25:55;15.20;52.80
37456;DHT22;23316;50.718;7.328;2023-04-24T01:28:23;15.20;52.80
37456;DHT22;23316;50.718;7.328;2023-04-24T01:30:50;15.20;52.80
37456;DHT22;23316;50.718;7.328;2023-04-24T01:33:18;15.20;52.80
37456;DHT22;23316;50.718;7.328;2023-04-24T01:35:46;15.20;52.70
37456;DHT22;23316;50.718;7.328;2023-04-24T01:38:14;15.20;52.60
37456;DHT22;23316;50.718;7.328;2023-04-24T01:40:43;15.20;52.60
37456;DHT22;23316;50.718;7.328;2023-04-24T01:43:11;15.10;52.50
37456;DHT22;23316;50.718;7.328;2023-04-24T01:45:39;15.10;52.50
37456;DHT22;23316;50.718;7.328;2023-04-24T01:48:06;15.10;52.60
37456;DHT22;23316;50.718;7.328;2023-04-24T01:50:33;15.10;52.70
37456;DHT22;23316;50.718;7.328;2023-04-24T01:53:01;15.10;52.80
37456;DHT22;23316;50.718;7.328;2023-04-24T01:55:28;15.00;52.40
37456;DHT22;23316;50.718;7.328;2023-04-24T01:57:57;15.00;51.40
37456;DHT22;23316;50.718;7.328;2023-04-24T02:00:26;15.00;51.10
37456;DHT22;23316;50.718;7.328;2023-04-24T02:02:53;14.90;50.20
37456;DHT22;23316;50.718;7.328;2023-04-24T02:05:21;14.90;50.10
37456;DHT22;23316;50.718;7.328;2023-04-24T02:07:48;14.80;49.90
37456;DHT22;23316;50.718;7.328;2023-04-24T02:10:15;14.80;49.90
37456;DHT22;23316;50.718;7.328;2023-04-24T02:12:42;14.70;49.80
37456;DHT22;23316;50.718;7.328;2023-04-24T02:15:12;14.70;49.60
37456;DHT22;23316;50.718;7.328;2023-04-24T02:17:39;14.70;49.60
37456;DHT22;23316;50.718;7.328;2023-04-24T02:20:07;14.60;49.40
37456;DHT22;23316;50.718;7.328;2023-04-24T02:22:34;14.60;49.20
37456;DHT22;23316;50.718;7.328;2023-04-24T02:25:05;14.60;49.20
37456;DHT22;23316;50.718;7.328;2023-04-24T02:27:32;14.50;49.10
37456;DHT22;23316;50.718;7.328;2023-04-24T02:30:02;14.50;48.90
37456;DHT22;23316;50.718;7.328;2023-04-24T02:32:31;14.50;48.90
37456;DHT22;23316;50.718;7.328;2023-04-24T02:34:58;14.40;48.70
37456;DHT22;23316;50.718;7.328;2023-04-24T02:37:25;14.40;48.70
37456;DHT22;23316;50.718;7.328;2023-04-24T02:39:53;14.40;48.70
37456;DHT22;23316;50.718;7.328;2023-04-24T02:42:20;14.40;48.80
37456;DHT22;23316;50.718;7.328;2023-04-24T02:44:47;14.40;48.80
37456;DHT22;23316;50.718;7.328;2023-04-24T02:47:14;14.30;48.70
37456;DHT22;23316;50.718;7.328;2023-04-24T02:49:43;14.30;48.70
37456;DHT22;23316;50.718;7.328;2023-04-24T02:52:11;14.30;48.70
37456;DHT22;23316;50.718;7.328;2023-04-24T02:54:39;14.30;48.70
37456;DHT22;23316;50.718;7.328;2023-04-24T02:57:06;14.30;48.70
37456;DHT22;23316;50.718;7.328;2023-04-24T02:59:33;14.20;48.60
37456;DHT22;23316;50.718;7.328;2023-04-24T03:02:01;14.20;48.70
37456;DHT22;23316;50.718;7.328;2023-04-24T03:04:28;14.20;48.70
37456;DHT22;23316;50.718;7.328;2023-04-24T03:06:56;14.10;48.50
37456;DHT22;23316;50.718;7.328;2023-04-24T03:09:24;14.10;48.50
37456;DHT22;23316;50.718;7.328;2023-04-24T03:11:52;14.00;48.50
37456;DHT22;23316;50.718;7.328;2023-04-24T03:14:19;14.00;48.50
37456;DHT22;23316;50.718;7.328;2023-04-24T03:16:46;13.90;48.50
37456;DHT22;23316;50.718;7.328;2023-04-24T03:19:13;13.90;48.50
37456;DHT22;23316;50.718;7.328;2023-04-24T03:21:41;13.90;48.50
37456;DHT22;23316;50.718;7.328;2023-04-24T03:24:09;13.80;48.50
37456;DHT22;23316;50.718;7.328;2023-04-24T03:26:37;13.80;48.50
37456;DHT22;23316;50.718;7.328;2023-04-24T03:29:05;13.80;48.60
37456;DHT22;23316;50.718;7.328;2023-04-24T03:31:34;13.70;48.70
37456;DHT22;23316;50.718;7.328;2023-04-24T03:34:01;13.60;48.80
37456;DHT22;23316;50.718;7.328;2023-04-24T03:36:29;13.70;48.90
37456;DHT22;23316;50.718;7.328;2023-04-24T03:38:57;13.60;48.80
37456;DHT22;23316;50.718;7.328;2023-04-24T03:41:25;13.60;48.90
37456;DHT22;23316;50.718;7.328;2023-04-24T03:43:52;13.60;48.90
37456;DHT22;23316;50.718;7.328;2023-04-24T03:46:20;13.50;48.90
37456;DHT22;23316;50.718;7.328;2023-04-24T03:48:47;13.50;48.90
37456;DHT22;23316;50.718;7.328;2023-04-24T03:51:14;13.50;48.90
37456;DHT22;23316;50.718;7.328;2023-04-24T03:53:41;13.40;48.80
37456;DHT22;23316;50.718;7.328;2023-04-24T03:56:09;13.40;48.80
37456;DHT22;23316;50.718;7.328;2023-04-24T03:58:39;13.40;48.90
37456;DHT22;23316;50.718;7.328;2023-04-24T04:01:07;13.30;48.80
37456;DHT22;23316;50.718;7.328;2023-04-24T04:03:37;13.30;48.90
37456;DHT22;23316;50.718;7.328;2023-04-24T04:06:05;13.30;48.90
37456;DHT22;23316;50.718;7.328;2023-04-24T04:08:32;13.20;49.00
37456;DHT22;23316;50.718;7.328;2023-04-24T04:10:59;13.20;49.00
37456;DHT22;23316;50.718;7.328;2023-04-24T04:13:26;13.10;48.90
37456;DHT22;23316;50.718;7.328;2023-04-24T04:15:55;13.10;49.00
37456;DHT22;23316;50.718;7.328;2023-04-24T04:18:22;13.10;49.00
37456;DHT22;23316;50.718;7.328;2023-04-24T04:20:50;13.00;49.10
37456;DHT22;23316;50.718;7.328;2023-04-24T04:23:17;13.00;49.20
37456;DHT22;23316;50.718;7.328;2023-04-24T04:25:45;13.00;49.30
37456;DHT22;23316;50.718;7.328;2023-04-24T04:28:12;13.00;49.50
37456;DHT22;23316;50.718;7.328;2023-04-24T04:30:41;12.90;49.50
37456;DHT22;23316;50.718;7.328;2023-04-24T04:33:10;12.90;49.60
37456;DHT22;23316;50.718;7.328;2023-04-24T04:35:43;12.90;49.60
37456;DHT22;23316;50.718;7.328;2023-04-24T04:38:10;12.90;49.70
37456;DHT22;23316;50.718;7.328;2023-04-24T04:40:38;12.90;49.70
37456;DHT22;23316;50.718;7.328;2023-04-24T04:43:06;12.90;49.70
37456;DHT22;23316;50.718;7.328;2023-04-24T04:45:35;12.90;49.80
37456;DHT22;23316;50.718;7.328;2023-04-24T04:48:02;12.80;49.80
37456;DHT22;23316;50.718;7.328;2023-04-24T04:50:31;12.80;49.80
37456;DHT22;23316;50.718;7.328;2023-04-24T04:52:58;12.80;49.80
37456;DHT22;23316;50.718;7.328;2023-04-24T04:55:26;12.80;49.90
37456;DHT22;23316;50.718;7.328;2023-04-24T04:57:53;12.80;50.00
37456;DHT22;23316;50.718;7.328;2023-04-24T05:00:21;12.80;50.00
37456;DHT22;23316;50.718;7.328;2023-04-24T05:02:50;12.80;50.00
37456;DHT22;23316;50.718;7.328;2023-04-24T05:05:23;12.80;50.00
37456;DHT22;23316;50.718;7.328;2023-04-24T05:08:13;12.80;50.00
37456;DHT22;23316;50.718;7.328;2023-04-24T05:11:11;12.80;50.00
37456;DHT22;23316;50.718;7.328;2023-04-24T05:13:41;12.80;50.00
37456;DHT22;23316;50.718;7.328;2023-04-24T05:16:11;12.80;50.00
37456;DHT22;23316;50.718;7.328;2023-04-24T05:18:40;12.80;50.10
37456;DHT22;23316;50.718;7.328;2023-04-24T05:21:08;12.80;50.20
37456;DHT22;23316;50.718;7.328;2023-04-24T05:23:37;12.90;50.30
37456;DHT22;23316;50.718;7.328;2023-04-24T05:26:04;12.90;50.40
37456;DHT22;23316;50.718;7.328;2023-04-24T05:28:32;12.90;50.20
37456;DHT22;23316;50.718;7.328;2023-04-24T05:30:59;12.90;50.30
37456;DHT22;23316;50.718;7.328;2023-04-24T05:33:27;12.90;50.40
37456;DHT22;23316;50.718;7.328;2023-04-24T05:35:54;13.00;51.00
37456;DHT22;23316;50.718;7.328;2023-04-24T05:38:21;13.00;50.40
37456;DHT22;23316;50.718;7.328;2023-04-24T05:40:49;13.00;50.50
37456;DHT22;23316;50.718;7.328;2023-04-24T05:43:17;13.00;50.40
37456;DHT22;23316;50.718;7.328;2023-04-24T05:45:47;13.10;50.40
37456;DHT22;23316;50.718;7.328;2023-04-24T05:48:14;13.10;50.30
37456;DHT22;23316;50.718;7.328;2023-04-24T05:50:44;13.10;50.20
37456;DHT22;23316;50.718;7.328;2023-04-24T05:53:13;13.10;50.70
37456;DHT22;23316;50.718;7.328;2023-04-24T05:55:42;13.10;50.20
37456;DHT22;23316;50.718;7.328;2023-04-24T05:58:10;13.10;50.20
37456;DHT22;23316;50.718;7.328;2023-04-24T06:00:38;13.10;50.10
37456;DHT22;23316;50.718;7.328;2023-04-24T06:03:08;13.10;50.20
37456;DHT22;23316;50.718;7.328;2023-04-24T06:05:35;13.10;50.30
37456;DHT22;23316;50.718;7.328;2023-04-24T06:08:02;13.10;50.30
37456;DHT22;23316;50.718;7.328;2023-04-24T06:10:30;13.10;50.30
37456;DHT22;23316;50.718;7.328;2023-04-24T06:12:58;13.10;50.30
37456;DHT22;23316;50.718;7.328;2023-04-24T06:15:30;13.10;50.30
37456;DHT22;23316;50.718;7.328;2023-04-24T06:18:00;13.10;50.80
37456;DHT22;23316;50.718;7.328;2023-04-24T06:20:29;13.10;50.20
37456;DHT22;23316;50.718;7.328;2023-04-24T06:22:57;13.20;50.30
37456;DHT22;23316;50.718;7.328;2023-04-24T06:25:25;13.10;50.20
37456;DHT22;23316;50.718;7.328;2023-04-24T06:27:55;13.20;50.20
37456;DHT22;23316;50.718;7.328;2023-04-24T06:30:23;13.20;50.30
37456;DHT22;23316;50.718;7.328;2023-04-24T06:32:52;13.20;50.40
37456;DHT22;23316;50.718;7.328;2023-04-24T06:35:22;13.20;50.40
37456;DHT22;23316;50.718;7.328;2023-04-24T06:37:49;13.20;50.40
37456;DHT22;23316;50.718;7.328;2023-04-24T06:40:17;13.20;50.50
37456;DHT22;23316;50.718;7.328;2023-04-24T06:42:46;13.20;50.40
37456;DHT22;23316;50.718;7.328;2023-04-24T06:45:13;13.20;50.40
37456;DHT22;23316;50.718;7.328;2023-04-24T06:47:41;13.20;50.50
37456;DHT22;23316;50.718;7.328;2023-04-24T06:50:12;13.30;50.60
37456;DHT22;23316;50.718;7.328;2023-04-24T06:52:41;13.30;50.80
37456;DHT22;23316;50.718;7.328;2023-04-24T06:55:10;13.30;51.00
37456;DHT22;23316;50.718;7.328;2023-04-24T06:57:38;13.40;51.10
37456;DHT22;23316;50.718;7.328;2023-04-24T07:00:07;13.30;51.10
37456;DHT22;23316;50.718;7.328;2023-04-24T07:02:35;13.40;51.20
37456;DHT22;23316;50.718;7.328;2023-04-24T07:05:03;13.40;51.20
37456;DHT22;23316;50.718;7.328;2023-04-24T07:07:32;13.30;51.10
37456;DHT22;23316;50.718;7.328;2023-04-24T07:10:00;13.40;51.30
37456;DHT22;23316;50.718;7.328;2023-04-24T07:12:27;13.40;51.30
37456;DHT22;23316;50.718;7.328;2023-04-24T07:14:54;13.40;51.40
37456;DHT22;23316;50.718;7.328;2023-04-24T07:17:21;13.40;51.40
37456;DHT22;23316;50.718;7.328;2023-04-24T07:19:48;13.30;51.50
37456;DHT22;23316;50.718;7.328;2023-04-24T07:22:16;13.30;51.70
37456;DHT22;23316;50.718;7.328;2023-04-24T07:24:44;13.30;51.90
37456;DHT22;23316;50.718;7.328;2023-04-24T07:27:12;13.30;52.10
37456;DHT22;23316;50.718;7.328;2023-04-24T07:29:43;13.30;52.30
37456;DHT22;23316;50.718;7.328;2023-04-24T07:32:10;13.30;52.30
37456;DHT22;23316;50.718;7.328;2023-04-24T07:34:37;13.30;52.60
37456;DHT22;23316;50.718;7.328;2023-04-24T07:37:04;13.30;52.70
37456;DHT22;23316;50.718;7.328;2023-04-24T07:39:31;13.30;52.90
37456;DHT22;23316;50.718;7.328;2023-04-24T07:42:00;13.30;52.90
37456;DHT22;23316;50.718;7.328;2023-04-24T07:44:28;13.20;53.00
37456;DHT22;23316;50.718;7.328;2023-04-24T07:46:56;13.30;53.10
37456;DHT22;23316;50.718;7.328;2023-04-24T07:49:23;13.20;53.10
37456;DHT22;23316;50.718;7.328;2023-04-24T07:51:50;13.20;53.10
37456;DHT22;23316;50.718;7.328;2023-04-24T07:54:17;13.20;53.30
37456;DHT22;23316;50.718;7.328;2023-04-24T07:56:44;13.20;53.30
37456;DHT22;23316;50.718;7.328;2023-04-24T07:59:13;13.20;53.30
37456;DHT22;23316;50.718;7.328;2023-04-24T08:01:41;13.20;53.50
37456;DHT22;23316;50.718;7.328;2023-04-24T08:04:09;13.20;53.50
37456;DHT22;23316;50.718;7.328;2023-04-24T08:06:36;13.20;53.50
37456;DHT22;23316;50.718;7.328;2023-04-24T08:09:04;13.20;53.60
37456;DHT22;23316;50.718;7.328;2023-04-24T08:11:32;13.20;53.80
37456;DHT22;23316;50.718;7.328;2023-04-24T08:14:00;13.20;53.80
37456;DHT22;23316;50.718;7.328;2023-04-24T08:16:29;13.20;54.40
37456;DHT22;23316;50.718;7.328;2023-04-24T08:18:56;13.10;54.10
37456;DHT22;23316;50.718;7.328;2023-04-24T08:21:24;13.10;54.10
37456;DHT22;23316;50.718;7.328;2023-04-24T08:23:53;13.10;54.10
37456;DHT22;23316;50.718;7.328;2023-04-24T08:26:21;13.10;54.20
37456;DHT22;23316;50.718;7.328;2023-04-24T08:28:51;13.10;54.30
37456;DHT22;23316;50.718;7.328;2023-04-24T08:31:18;13.00;54.30
37456;DHT22;23316;50.718;7.328;2023-04-24T08:33:47;13.00;54.30
37456;DHT22;23316;50.718;7.328;2023-04-24T08:36:15;12.90;54.40
37456;DHT22;23316;50.718;7.328;2023-04-24T08:38:46;12.90;54.40
37456;DHT22;23316;50.718;7.328;2023-04-24T08:41:14;12.90;54.80
37456;DHT22;23316;50.718;7.328;2023-04-24T08:43:43;12.90;54.80
37456;DHT22;23316;50.718;7.328;2023-04-24T08:46:11;12.80;54.90
37456;DHT22;23316;50.718;7.328;2023-04-24T08:48:40;12.80;55.00
37456;DHT22;23316;50.718;7.328;2023-04-24T08:51:10;12.80;55.00
37456;DHT22;23316;50.718;7.328;2023-04-24T08:53:38;12.70;55.10
37456;DHT22;23316;50.718;7.328;2023-04-24T08:56:06;12.70;55.10
37456;DHT22;23316;50.718;7.328;2023-04-24T08:58:35;12.70;55.10
37456;DHT22;23316;50.718;7.328;2023-04-24T09:01:03;12.60;54.70
37456;DHT22;23316;50.718;7.328;2023-04-24T09:03:31;12.60;54.60
37456;DHT22;23316;50.718;7.328;2023-04-24T09:06:00;12.50;54.40
37456;DHT22;23316;50.718;7.328;2023-04-24T09:08:29;12.40;53.60
37456;DHT22;23316;50.718;7.328;2023-04-24T09:10:57;12.30;53.60
37456;DHT22;23316;50.718;7.328;2023-04-24T09:13:27;12.20;53.90
37456;DHT22;23316;50.718;7.328;2023-04-24T09:15:55;12.10;54.30
37456;DHT22;23316;50.718;7.328;2023-04-24T09:18:23;12.00;54.60
37456;DHT22;23316;50.718;7.328;2023-04-24T09:21:01;11.90;54.80
37456;DHT22;23316;50.718;7.328;2023-04-24T09:23:31;11.80;55.20
37456;DHT22;23316;50.718;7.328;2023-04-24T09:25:59;11.70;55.50
37456;DHT22;23316;50.718;7.328;2023-04-24T09:28:32;11.70;55.80
37456;DHT22;23316;50.718;7.328;2023-04-24T09:31:06;11.60;56.00
37456;DHT22;23316;50.718;7.328;2023-04-24T09:33:34;11.60;56.20
37456;DHT22;23316;50.718;7.328;2023-04-24T09:36:02;11.50;56.40
37456;DHT22;23316;50.718;7.328;2023-04-24T09:38:35;11.50;56.70
37456;DHT22;23316;50.718;7.328;2023-04-24T09:41:05;11.50;56.90
37456;DHT22;23316;50.718;7.328;2023-04-24T09:43:32;11.50;57.00
37456;DHT22;23316;50.718;7.328;2023-04-24T09:46:04;11.50;57.10
37456;DHT22;23316;50.718;7.328;2023-04-24T09:48:33;11.50;57.40
37456;DHT22;23316;50.718;7.328;2023-04-24T09:51:01;11.50;57.40
37456;DHT22;23316;50.718;7.328;2023-04-24T09:53:29;11.50;57.50
37456;DHT22;23316;50.718;7.328;2023-04-24T09:56:02;11.50;57.80
37456;DHT22;23316;50.718;7.328;2023-04-24T09:58:29;11.40;57.90
37456;DHT22;23316;50.718;7.328;2023-04-24T10:00:57;11.40;57.80
37456;DHT22;23316;50.718;7.328;2023-04-24T10:03:25;11.30;58.20
37456;DHT22;23316;50.718;7.328;2023-04-24T10:05:53;11.30;58.50
37456;DHT22;23316;50.718;7.328;2023-04-24T10:08:21;11.20;58.40
37456;DHT22;23316;50.718;7.328;2023-04-24T10:10:48;11.20;58.80
37456;DHT22;23316;50.718;7.328;2023-04-24T10:13:16;11.20;58.90
37456;DHT22;23316;50.718;7.328;2023-04-24T10:15:44;11.20;59.30
37456;DHT22;23316;50.718;7.328;2023-04-24T10:18:11;11.20;59.50
37456;DHT22;23316;50.718;7.328;2023-04-24T10:20:39;11.20;59.50
37456;DHT22;23316;50.718;7.328;2023-04-24T10:23:07;11.20;59.70
37456;DHT22;23316;50.718;7.328;2023-04-24T10:25:35;11.20;59.70
37456;DHT22;23316;50.718;7.328;2023-04-24T10:28:04;11.20;59.80
37456;DHT22;23316;50.718;7.328;2023-04-24T10:30:34;11.30;59.80
37456;DHT22;23316;50.718;7.328;2023-04-24T10:33:02;11.30;59.90
37456;DHT22;23316;50.718;7.328;2023-04-24T10:35:31;11.30;59.90
37456;DHT22;23316;50.718;7.328;2023-04-24T10:38:03;11.40;60.10
37456;DHT22;23316;50.718;7.328;2023-04-24T10:40:35;11.40;60.30
37456;DHT22;23316;50.718;7.328;2023-04-24T10:43:03;11.50;60.20
37456;DHT22;23316;50.718;7.328;2023-04-24T10:45:33;11.50;60.20
37456;DHT22;23316;50.718;7.328;2023-04-24T10:48:02;11.60;60.50
37456;DHT22;23316;50.718;7.328;2023-04-24T10:50:34;11.50;60.40
37456;DHT22;23316;50.718;7.328;2023-04-24T10:53:13;11.60;60.50
37456;DHT22;23316;50.718;7.328;2023-04-24T10:55:45;11.70;60.70
37456;DHT22;23316;50.718;7.328;2023-04-24T10:58:13;11.70;61.20
37456;DHT22;23316;50.718;7.328;2023-04-24T11:00:43;11.80;61.40
37456;DHT22;23316;50.718;7.328;2023-04-24T11:03:24;11.90;61.30
37456;DHT22;23316;50.718;7.328;2023-04-24T11:05:55;12.00;61.30
37456;DHT22;23316;50.718;7.328;2023-04-24T11:08:27;12.00;60.70
37456;DHT22;23316;50.718;7.328;2023-04-24T11:10:57;12.10;60.30
37456;DHT22;23316;50.718;7.328;2023-04-24T11:13:25;12.10;59.90
37456;DHT22;23316;50.718;7.328;2023-04-24T11:16:13;12.20;59.90
37456;DHT22;23316;50.718;7.328;2023-04-24T11:18:42;12.30;59.90
37456;DHT22;23316;50.718;7.328;2023-04-24T11:21:12;12.30;59.60
37456;DHT22;23316;50.718;7.328;2023-04-24T11:23:39;12.30;60.00
37456;DHT22;23316;50.718;7.328;2023-04-24T11:26:11;12.30;59.50
37456;DHT22;23316;50.718;7.328;2023-04-24T11:28:44;12.40;59.50
37456;DHT22;23316;50.718;7.328;2023-04-24T11:31:40;12.40;59.60
37456;DHT22;23316;50.718;7.328;2023-04-24T11:34:08;12.50;59.30
37456;DHT22;23316;50.718;7.328;2023-04-24T11:36:36;12.40;58.90
37456;DHT22;23316;50.718;7.328;2023-04-24T11:39:04;12.50;59.10
37456;DHT22;23316;50.718;7.328;2023-04-24T11:41:33;12.50;59.40
37456;DHT22;23316;50.718;7.328;2023-04-24T11:44:01;12.50;59.50
37456;DHT22;23316;50.718;7.328;2023-04-24T11:46:30;12.50;59.40
37456;DHT22;23316;50.718;7.328;2023-04-24T11:48:59;12.60;59.50
37456;DHT22;23316;50.718;7.328;2023-04-24T11:51:27;12.60;59.60
37456;DHT22;23316;50.718;7.328;2023-04-24T11:53:55;12.70;59.90
37456;DHT22;23316;50.718;7.328;2023-04-24T11:56:23;12.70;59.90
37456;DHT22;23316;50.718;7.328;2023-04-24T11:58:52;12.80;59.80
37456;DHT22;23316;50.718;7.328;2023-04-24T12:01:20;12.90;60.00
37456;DHT22;23316;50.718;7.328;2023-04-24T12:03:49;12.90;59.90
37456;DHT22;23316;50.718;7.328;2023-04-24T12:06:18;13.00;60.10
37456;DHT22;23316;50.718;7.328;2023-04-24T12:08:47;13.10;60.20
37456;DHT22;23316;50.718;7.328;2023-04-24T12:11:16;13.10;59.80
37456;DHT22;23316;50.718;7.328;2023-04-24T12:13:44;13.10;59.50
37456;DHT22;23316;50.718;7.328;2023-04-24T12:16:13;13.20;59.20
37456;DHT22;23316;50.718;7.328;2023-04-24T12:18:44;13.20;58.90
37456;DHT22;23316;50.718;7.328;2023-04-24T12:21:15;13.10;58.90
37456;DHT22;23316;50.718;7.328;2023-04-24T12:23:44;13.10;59.10
37456;DHT22;23316;50.718;7.328;2023-04-24T12:26:15;13.10;59.30
37456;DHT22;23316;50.718;7.328;2023-04-24T12:28:49;13.10;59.40
37456;DHT22;23316;50.718;7.328;2023-04-24T12:31:21;13.10;59.40
37456;DHT22;23316;50.718;7.328;2023-04-24T12:33:56;13.10;59.40
37456;DHT22;23316;50.718;7.328;2023-04-24T12:36:28;13.10;59.80
37456;DHT22;23316;50.718;7.328;2023-04-24T12:39:04;13.20;59.40
37456;DHT22;23316;50.718;7.328;2023-04-24T12:41:54;13.20;59.60
37456;DHT22;23316;50.718;7.328;2023-04-24T12:44:32;13.30;60.30
37456;DHT22;23316;50.718;7.328;2023-04-24T12:47:01;13.30;59.30
37456;DHT22;23316;50.718;7.328;2023-04-24T12:49:30;13.40;59.00
37456;DHT22;23316;50.718;7.328;2023-04-24T12:51:57;13.40;58.90
37456;DHT22;23316;50.718;7.328;2023-04-24T12:54:26;13.50;58.90
37456;DHT22;23316;50.718;7.328;2023-04-24T12:56:58;13.50;58.90
37456;DHT22;23316;50.718;7.328;2023-04-24T12:59:26;13.50;58.90
37456;DHT22;23316;50.718;7.328;2023-04-24T13:01:53;13.60;58.90
37456;DHT22;23316;50.718;7.328;2023-04-24T13:04:20;13.60;58.50
37456;DHT22;23316;50.718;7.328;2023-04-24T13:06:47;13.70;58.20
37456;DHT22;23316;50.718;7.328;2023-04-24T13:09:15;13.80;58.10
37456;DHT22;23316;50.718;7.328;2023-04-24T13:11:43;13.80;57.90
37456;DHT22;23316;50.718;7.328;2023-04-24T13:14:10;13.80;57.90
37456;DHT22;23316;50.718;7.328;2023-04-24T13:16:37;13.90;57.80
37456;DHT22;23316;50.718;7.328;2023-04-24T13:19:05;13.90;57.80
37456;DHT22;23316;50.718;7.328;2023-04-24T13:21:32;13.90;57.70
37456;DHT22;23316;50.718;7.328;2023-04-24T13:23:59;14.00;57.70
37456;DHT22;23316;50.718;7.328;2023-04-24T13:26:26;14.00;57.40
37456;DHT22;23316;50.718;7.328;2023-04-24T13:28:55;14.00;57.30
37456;DHT22;23316;50.718;7.328;2023-04-24T13:31:22;14.00;57.00
37456;DHT22;23316;50.718;7.328;2023-04-24T13:33:49;14.10;57.00
37456;DHT22;23316;50.718;7.328;2023-04-24T13:36:16;14.10;56.80
37456;DHT22;23316;50.718;7.328;2023-04-24T13:38:44;14.10;56.40
37456;DHT22;23316;50.718;7.328;2023-04-24T13:41:11;14.10;56.30
37456;DHT22;23316;50.718;7.328;2023-04-24T13:43:38;14.10;56.40
37456;DHT22;23316;50.718;7.328;2023-04-24T13:46:09;14.10;56.40
37456;DHT22;23316;50.718;7.328;2023-04-24T13:48:36;14.10;56.20
37456;DHT22;23316;50.718;7.328;2023-04-24T13:51:03;14.10;56.20
37456;DHT22;23316;50.718;7.328;2023-04-24T13:53:30;14.20;56.40
37456;DHT22;23316;50.718;7.328;2023-04-24T13:55:58;14.20;56.30
37456;DHT22;23316;50.718;7.328;2023-04-24T13:58:25;14.30;56.10
37456;DHT22;23316;50.718;7.328;2023-04-24T14:00:53;14.30;55.70
37456;DHT22;23316;50.718;7.328;2023-04-24T14:03:21;14.40;54.80
37456;DHT22;23316;50.718;7.328;2023-04-24T14:05:48;14.40;54.10
37456;DHT22;23316;50.718;7.328;2023-04-24T14:08:16;14.40;53.90
37456;DHT22;23316;50.718;7.328;2023-04-24T14:10:43;14.50;54.10
37456;DHT22;23316;50.718;7.328;2023-04-24T14:13:10;14.50;53.90
37456;DHT22;23316;50.718;7.328;2023-04-24T14:15:38;14.60;53.40
37456;DHT22;23316;50.718;7.328;2023-04-24T14:18:05;14.60;53.30
37456;DHT22;23316;50.718;7.328;2023-04-24T14:20:34;14.70;52.80
37456;DHT22;23316;50.718;7.328;2023-04-24T14:23:01;14.70;52.90
37456;DHT22;23316;50.718;7.328;2023-04-24T14:25:29;14.70;52.30
37456;DHT22;23316;50.718;7.328;2023-04-24T14:27:56;14.70;51.90
37456;DHT22;23316;50.718;7.328;2023-04-24T14:30:23;14.60;51.90
37456;DHT22;23316;50.718;7.328;2023-04-24T14:32:51;14.60;52.10
37456;DHT22;23316;50.718;7.328;2023-04-24T14:35:18;14.50;52.10
37456;DHT22;23316;50.718;7.328;2023-04-24T14:37:46;14.40;52.30
37456;DHT22;23316;50.718;7.328;2023-04-24T14:40:14;14.30;52.80
37456;DHT22;23316;50.718;7.328;2023-04-24T14:42:41;14.30;53.40
37456;DHT22;23316;50.718;7.328;2023-04-24T14:45:09;14.20;54.10
37456;DHT22;23316;50.718;7.328;2023-04-24T14:47:36;14.10;54.40
37456;DHT22;23316;50.718;7.328;2023-04-24T14:50:06;14.10;53.70
37456;DHT22;23316;50.718;7.328;2023-04-24T14:52:34;14.10;54.20
37456;DHT22;23316;50.718;7.328;2023-04-24T14:55:04;14.00;54.00
37456;DHT22;23316;50.718;7.328;2023-04-24T14:57:32;14.00;54.10
37456;DHT22;23316;50.718;7.328;2023-04-24T15:00:03;14.00;54.00
37456;DHT22;23316;50.718;7.328;2023-04-24T15:02:33;14.00;54.10
37456;DHT22;23316;50.718;7.328;2023-04-24T15:05:03;14.00;54.20
37456;DHT22;23316;50.718;7.328;2023-04-24T15:07:30;14.00;53.70
37456;DHT22;23316;50.718;7.328;2023-04-24T15:09:57;14.10;54.10
37456;DHT22;23316;50.718;7.328;2023-04-24T15:12:26;14.20;54.50
37456;DHT22;23316;50.718;7.328;2023-04-24T15:14:54;14.20;54.30
37456;DHT22;23316;50.718;7.328;2023-04-24T15:17:21;14.20;54.00
37456;DHT22;23316;50.718;7.328;2023-04-24T15:19:49;14.30;53.60
37456;DHT22;23316;50.718;7.328;2023-04-24T15:22:16;14.40;53.20
37456;DHT22;23316;50.718;7.328;2023-04-24T15:24:43;14.30;52.70
37456;DHT22;23316;50.718;7.328;2023-04-24T15:27:10;14.40;52.90
37456;DHT22;23316;50.718;7.328;2023-04-24T15:29:39;14.40;52.30
37456;DHT22;23316;50.718;7.328;2023-04-24T15:32:06;14.40;51.90
37456;DHT22;23316;50.718;7.328;2023-04-24T15:34:33;14.40;51.50
37456;DHT22;23316;50.718;7.328;2023-04-24T15:37:01;14.40;51.70
37456;DHT22;23316;50.718;7.328;2023-04-24T15:39:29;14.40;51.90